Time;durP1;ratioP1;P1;durP2;ratioP2;P2;SDS_P1;SDS_P2;PMS_P1;PMS_P2;Temp;Humidity;BMP_temperature;BMP_pressure;BME280_temperature;BME280_humidity;BME280_pressure;Samples;Min_cycle;Max_cycle;Signal;HPM_P1;HPM_P2
2023/02/19 00:01:55;;;;;;;14.00;3.90;;;;;;;3.40;100.00;98410.83;107650;1270;22635;-70
2023/02/19 00:04:23;;;;;;;11.20;3.80;;;;;;;3.37;100.00;98413.55;107462;1270;23051;-70
2023/02/19 00:06:52;;;;;;;11.10;3.70;;;;;;;3.31;100.00;98408.08;107529;1270;23528;-69
2023/02/19 00:09:20;;;;;;;13.40;3.70;;;;;;;3.26;100.00;98406.77;107402;1276;22550;-69
2023/02/19 00:11:49;;;;;;;9.00;3.10;;;;;;;3.22;100.00;98407.78;107550;1270;25513;-69
2023/02/19 00:14:19;;;;;;;8.80;3.30;;;;;;;3.25;100.00;98409.40;107547;1270;22524;-70
2023/02/19 00:16:47;;;;;;;9.70;3.30;;;;;;;3.26;100.00;98411.73;107482;1273;24241;-69
2023/02/19 00:19:19;;;;;;;12.90;3.70;;;;;;;3.20;100.00;98409.60;107594;1276;23485;-69
2023/02/19 00:21:49;;;;;;;13.30;4.10;;;;;;;3.16;100.00;98413.09;107673;1270;24218;-70
2023/02/19 00:24:18;;;;;;;11.00;3.20;;;;;;;3.12;100.00;98414.09;107521;1270;23255;-70
2023/02/19 00:26:47;;;;;;;10.80;3.40;;;;;;;3.15;100.00;98412.34;107401;1274;22617;-69
2023/02/19 00:29:18;;;;;;;10.30;3.70;;;;;;;3.18;100.00;98415.23;107563;1273;25491;-70
2023/02/19 00:31:46;;;;;;;9.50;3.20;;;;;;;3.16;100.00;98416.48;107556;1276;22542;-68
2023/02/19 00:34:15;;;;;;;12.70;4.00;;;;;;;3.13;100.00;98415.96;107488;1270;22567;-70
2023/02/19 00:36:43;;;;;;;13.10;3.70;;;;;;;3.10;100.00;98411.05;107689;1270;22539;-70
2023/02/19 00:39:14;;;;;;;14.30;3.90;;;;;;;3.07;100.00;98411.52;107518;1270;27613;-70
2023/02/19 00:41:43;;;;;;;11.50;3.60;;;;;;;3.12;100.00;98411.77;107527;1270;22984;-69
2023/02/19 00:44:12;;;;;;;11.50;3.40;;;;;;;3.16;100.00;98416.39;107527;1272;22529;-70
2023/02/19 00:46:45;;;;;;;15.80;4.10;;;;;;;3.14;100.00;98415.71;107654;1272;27640;-70
2023/02/19 00:49:16;;;;;;;9.20;3.20;;;;;;;3.13;100.00;98419.04;107676;1270;22534;-69
2023/02/19 00:51:45;;;;;;;12.20;3.40;;;;;;;3.09;100.00;98418.31;107468;1272;23247;-69
2023/02/19 00:54:13;;;;;;;12.20;3.40;;;;;;;3.11;100.00;98427.94;107646;1269;24224;-70
2023/02/19 00:56:42;;;;;;;11.10;3.50;;;;;;;3.17;100.00;98427.68;107583;1273;26160;-69
2023/02/19 00:59:10;;;;;;;9.80;3.60;;;;;;;3.23;100.00;98430.73;107597;1272;22664;-70
2023/02/19 01:01:38;;;;;;;14.70;4.20;;;;;;;3.21;100.00;98429.92;107457;1273;23736;-70
2023/02/19 01:04:07;;;;;;;15.10;4.60;;;;;;;3.18;100.00;98432.38;107925;1268;23109;-69
2023/02/19 01:06:35;;;;;;;11.50;4.90;;;;;;;3.16;100.00;98432.02;110322;1269;22301;-70
2023/02/19 01:09:06;;;;;;;16.80;4.20;;;;;;;3.16;100.00;98435.64;110278;1274;22307;-70
2023/02/19 01:11:34;;;;;;;18.60;5.10;;;;;;;3.22;100.00;98436.27;110189;1273;22358;-70
2023/02/19 01:14:03;;;;;;;11.30;4.30;;;;;;;3.28;100.00;98441.17;110285;1273;22388;-70
2023/02/19 01:16:32;;;;;;;13.90;4.20;;;;;;;3.26;100.00;98434.42;110205;1273;22512;-70
2023/02/19 01:19:01;;;;;;;12.60;4.30;;;;;;;3.22;100.00;98439.82;107944;1276;22542;-70
2023/02/19 01:21:29;;;;;;;14.60;4.30;;;;;;;3.18;100.00;98438.13;107934;1273;26528;-70
2023/02/19 01:23:58;;;;;;;10.00;3.60;;;;;;;3.17;100.00;98434.56;107638;1270;25453;-69
2023/02/19 01:26:28;;;;;;;9.30;3.30;;;;;;;3.21;100.00;98436.96;107624;1269;23763;-69
2023/02/19 01:29:01;;;;;;;9.60;3.50;;;;;;;3.21;100.00;98444.07;107637;1269;23112;-70
2023/02/19 01:31:29;;;;;;;10.00;3.30;;;;;;;3.15;100.00;98441.80;107484;1268;25350;-69
2023/02/19 01:33:59;;;;;;;12.20;3.80;;;;;;;3.11;100.00;98446.55;107367;1270;25364;-69
2023/02/19 01:36:28;;;;;;;14.70;3.70;;;;;;;3.07;100.00;98448.08;107540;1273;22755;-70
2023/02/19 01:38:59;;;;;;;15.30;4.90;;;;;;;3.09;100.00;98443.37;107607;1270;26383;-70
2023/02/19 01:41:27;;;;;;;10.00;3.60;;;;;;;3.10;100.00;98441.39;107716;1275;25367;-71
2023/02/19 01:44:10;;;;;;;10.10;3.80;;;;;;;3.07;100.00;98448.73;107481;1275;24404;-70
2023/02/19 01:46:39;;;;;;;13.10;3.60;;;;;;;3.01;100.00;98445.86;107476;1270;22542;-69
2023/02/19 01:49:11;;;;;;;13.00;3.60;;;;;;;2.96;100.00;98454.48;109544;1270;25279;-70
2023/02/19 01:51:46;;;;;;;11.20;3.60;;;;;;;3.00;100.00;98455.98;107698;1269;23216;-70
2023/02/19 01:54:15;;;;;;;9.30;3.60;;;;;;;3.06;100.00;98460.33;107661;1270;25390;-71
2023/02/19 01:56:44;;;;;;;11.10;3.40;;;;;;;3.01;100.00;98456.63;107732;1269;25249;-69
2023/02/19 01:59:13;;;;;;;10.30;3.80;;;;;;;2.98;100.00;98463.52;107617;1270;22539;-69
2023/02/19 02:01:44;;;;;;;12.50;4.20;;;;;;;2.94;100.00;98462.04;107459;1272;22571;-70
2023/02/19 02:04:14;;;;;;;10.90;3.30;;;;;;;2.99;100.00;98473.60;107547;1274;25491;-69
2023/02/19 02:06:51;;;;;;;10.60;3.60;;;;;;;3.03;100.00;98481.70;110169;1271;23142;-71
2023/02/19 02:12:09;;;;;;;11.60;3.80;;;;;;;2.97;100.00;98479.98;110110;1270;22394;-71
2023/02/19 02:14:42;;;;;;;10.20;3.50;;;;;;;2.95;100.00;98483.92;110264;1270;22311;-70
2023/02/19 02:17:11;;;;;;;10.00;3.20;;;;;;;2.99;100.00;98487.69;110150;1273;22464;-70
2023/02/19 02:19:40;;;;;;;12.60;3.90;;;;;;;3.04;100.00;98495.05;110350;1272;22279;-71
2023/02/19 02:22:18;;;;;;;11.50;3.90;;;;;;;3.03;100.00;98492.02;107624;1274;22821;-70
2023/02/19 02:24:56;;;;;;;12.50;3.80;;;;;;;3.00;100.00;98496.68;107425;1273;23118;-70
2023/02/19 02:27:30;;;;;;;8.90;3.20;;;;;;;2.99;100.00;98505.80;107517;1274;22562;-69
2023/02/19 02:30:04;;;;;;;10.80;3.70;;;;;;;3.03;100.00;98503.54;107384;1270;22639;-69
2023/02/19 02:32:37;;;;;;;12.00;4.20;;;;;;;3.01;100.00;98501.90;107556;1272;22765;-69
2023/02/19 02:35:11;;;;;;;13.30;4.70;;;;;;;2.95;100.00;98501.67;107444;1273;25348;-70
2023/02/19 02:37:40;;;;;;;12.40;4.70;;;;;;;2.89;100.00;98498.64;107727;1270;23367;-69
2023/02/19 02:40:09;;;;;;;10.30;4.10;;;;;;;2.86;100.00;98494.48;107638;1273;23684;-70
2023/02/19 02:42:38;;;;;;;13.50;4.20;;;;;;;2.86;100.00;98504.90;107794;1270;26573;-70
2023/02/19 02:48:44;;;;;;;14.00;5.30;;;;;;;2.64;100.00;98520.07;107533;1269;23832;-69
2023/02/19 02:51:18;;;;;;;13.00;4.60;;;;;;;2.56;100.00;98526.19;107410;1272;22553;-70
2023/02/19 02:56:58;;;;;;;12.30;4.30;;;;;;;2.46;100.00;98531.50;110283;1270;22947;-70
2023/02/19 02:59:32;;;;;;;12.80;4.40;;;;;;;2.35;100.00;98533.92;109601;1270;24206;-70
2023/02/19 03:02:17;;;;;;;9.90;4.40;;;;;;;2.27;100.00;98542.62;110084;1273;23127;-71
2023/02/19 03:07:47;;;;;;;11.20;4.20;;;;;;;2.26;100.00;98548.60;110199;1276;22486;-71
2023/02/19 03:10:16;;;;;;;;;;;;;;;2.18;100.00;98550.87;110306;1270;22423;-70
2023/02/19 03:21:09;;;;;;;14.60;4.80;;;;;;;2.05;100.00;98562.02;108773;1273;22511;-69
2023/02/19 03:26:26;;;;;;;13.90;4.30;;;;;;;1.96;100.00;98567.50;110167;1273;22442;-70
2023/02/19 03:31:42;;;;;;;15.10;5.10;;;;;;;1.90;100.00;98573.15;109837;1274;242726;-71
2023/02/19 03:35:30;;;;;;;16.30;4.80;;;;;;;1.92;100.00;98579.04;104354;1305;545695;-69
2023/02/19 03:38:17;;;;;;;14.70;5.10;;;;;;;1.85;100.00;98587.39;106693;1282;22554;-70
2023/02/19 03:41:05;;;;;;;15.20;5.30;;;;;;;1.79;100.00;98590.55;106643;1284;24275;-69
2023/02/19 03:43:45;;;;;;;14.30;5.20;;;;;;;1.76;100.00;98592.71;106550;1286;23905;-69
2023/02/19 03:46:22;;;;;;;15.80;6.20;;;;;;;1.79;100.00;98594.15;109495;1282;22437;-70
2023/02/19 03:48:57;;;;;;;19.00;7.60;;;;;;;1.83;100.00;98595.56;107604;1285;116337;-69
2023/02/19 03:51:25;;;;;;;16.50;6.50;;;;;;;1.80;100.00;98594.77;108683;1282;22338;-70
2023/02/19 03:54:19;;;;;;;21.20;6.90;;;;;;;1.74;100.00;98590.00;108107;1279;22532;-70
2023/02/19 03:57:16;;;;;;;14.10;6.00;;;;;;;1.70;100.00;98591.33;106495;1280;24382;-69
2023/02/19 03:59:50;;;;;;;14.80;5.10;;;;;;;1.69;100.00;98591.69;107074;1283;25416;-69
2023/02/19 04:02:24;;;;;;;13.70;5.10;;;;;;;1.68;100.00;98595.88;106895;1280;23230;-69
2023/02/19 04:05:17;;;;;;;12.20;5.40;;;;;;;1.63;100.00;98592.33;106848;1279;24333;-69
2023/02/19 04:07:48;;;;;;;13.30;5.10;;;;;;;1.53;100.00;98587.85;107027;1279;24379;-70
2023/02/19 04:10:18;;;;;;;11.80;4.90;;;;;;;1.43;100.00;98592.77;107784;1279;22574;-69
2023/02/19 04:12:56;;;;;;;14.30;4.80;;;;;;;1.36;100.00;98590.77;106476;1280;22531;-68
2023/02/19 04:15:27;;;;;;;11.90;5.40;;;;;;;1.37;100.00;98597.17;106844;1282;22682;-69
2023/02/19 04:18:03;;;;;;;11.00;5.20;;;;;;;1.37;100.00;98596.31;106928;1279;22569;-69
2023/02/19 04:20:37;;;;;;;17.70;7.00;;;;;;;1.36;100.00;98604.49;106611;1264;23326;-69
2023/02/19 04:23:05;;;;;;;15.50;5.60;;;;;;;1.30;100.00;98605.08;106751;1280;22984;-69
2023/02/19 04:25:35;;;;;;;12.40;4.90;;;;;;;1.23;100.00;98603.70;106773;1280;25411;-69
2023/02/19 04:28:03;;;;;;;13.30;4.80;;;;;;;1.23;100.00;98613.30;106893;1280;26160;-70
2023/02/19 04:30:31;;;;;;;12.50;4.60;;;;;;;1.26;100.00;98622.91;107074;1280;22788;-69
2023/02/19 04:33:00;;;;;;;13.40;4.70;;;;;;;1.27;100.00;98629.05;107048;1281;25379;-68
2023/02/19 04:35:29;;;;;;;13.90;4.90;;;;;;;1.22;100.00;98630.45;109560;1279;22428;-68
2023/02/19 04:37:57;;;;;;;11.70;4.20;;;;;;;1.16;100.00;98632.46;109597;1283;22397;-70
2023/02/19 04:40:25;;;;;;;9.50;4.30;;;;;;;1.17;100.00;98633.83;109604;1285;22454;-69
2023/02/19 04:42:53;;;;;;;12.60;5.10;;;;;;;1.18;100.00;98636.91;109606;1279;22368;-69
2023/02/19 04:45:21;;;;;;;16.20;5.20;;;;;;;1.19;100.00;98636.24;109584;1280;22478;-68
2023/02/19 04:47:50;;;;;;;11.30;4.90;;;;;;;1.17;100.00;98635.27;109480;1280;22831;-69
2023/02/19 04:50:19;;;;;;;13.80;6.10;;;;;;;1.11;100.00;98635.68;109607;1285;22290;-69
2023/02/19 04:52:47;;;;;;;11.20;4.50;;;;;;;1.09;100.00;98637.86;109601;1283;22392;-69
2023/02/19 04:55:16;;;;;;;11.90;4.80;;;;;;;1.09;100.00;98647.83;110033;1272;22312;-69
2023/02/19 04:57:45;;;;;;;15.40;5.00;;;;;;;1.08;100.00;98655.62;110045;1278;22879;-68
2023/02/19 05:00:13;;;;;;;12.40;5.30;;;;;;;1.03;100.00;98658.34;109936;1272;22331;-68
2023/02/19 05:02:42;;;;;;;15.40;5.20;;;;;;;0.95;100.00;98660.40;107720;1272;23082;-68
2023/02/19 05:05:11;;;;;;;14.70;4.90;;;;;;;0.90;100.00;98663.00;107295;1278;25388;-67
2023/02/19 05:07:39;;;;;;;14.20;5.70;;;;;;;0.89;100.00;98667.75;107370;1272;22529;-68
2023/02/19 05:10:07;;;;;;;12.70;5.10;;;;;;;0.89;100.00;98663.69;107358;1273;22606;-67
2023/02/19 05:12:35;;;;;;;11.00;4.90;;;;;;;0.88;100.00;98660.79;107607;1273;25306;-68
2023/02/19 05:15:04;;;;;;;13.40;4.70;;;;;;;0.84;100.00;98662.88;107398;1272;24303;-68
2023/02/19 05:17:33;;;;;;;10.00;4.10;;;;;;;0.79;100.00;98663.38;107508;1276;25354;-68
2023/02/19 05:20:06;;;;;;;11.50;4.60;;;;;;;0.80;100.00;98664.69;107201;1272;23900;-68
2023/02/19 05:22:34;;;;;;;10.00;3.50;;;;;;;0.82;100.00;98666.04;109513;1273;23374;-68
2023/02/19 05:25:06;;;;;;;12.00;4.00;;;;;;;0.82;100.00;98666.54;107297;1277;25370;-68
2023/02/19 05:27:36;;;;;;;11.50;4.60;;;;;;;0.78;100.00;98674.53;107340;1272;23379;-68
2023/02/19 05:30:04;;;;;;;11.40;4.10;;;;;;;0.71;100.00;98677.30;107277;1274;22576;-68
2023/02/19 05:32:34;;;;;;;10.50;4.20;;;;;;;0.71;100.00;98682.11;107356;1272;25412;-68
2023/02/19 05:35:02;;;;;;;11.50;4.10;;;;;;;0.75;100.00;98680.69;109406;1273;23030;-68
2023/02/19 05:37:32;;;;;;;12.80;4.10;;;;;;;0.78;100.00;98683.88;107396;1273;25357;-68
2023/02/19 05:40:00;;;;;;;9.70;4.10;;;;;;;0.77;100.00;98690.21;107369;1272;24492;-68
2023/02/19 05:42:29;;;;;;;9.50;3.30;;;;;;;0.74;100.00;98691.77;107401;1273;26104;-68
2023/02/19 05:44:59;;;;;;;14.00;5.30;;;;;;;0.77;100.00;98693.96;107416;1272;25372;-68
2023/02/19 05:47:28;;;;;;;8.10;3.70;;;;;;;0.82;100.00;98699.76;107311;1273;22620;-68
2023/02/19 05:49:56;;;;;;;13.40;4.80;;;;;;;0.80;100.00;98706.96;107282;1279;22580;-68
2023/02/19 05:52:24;;;;;;;13.80;5.20;;;;;;;0.79;100.00;98710.45;107229;1279;22570;-68
2023/02/19 05:54:53;;;;;;;13.90;5.60;;;;;;;0.83;100.00;98703.13;107324;1279;23471;-69
2023/02/19 05:57:21;;;;;;;14.10;5.30;;;;;;;0.90;100.00;98707.02;107267;1278;24286;-68
2023/02/19 05:59:49;;;;;;;12.20;5.30;;;;;;;0.95;100.00;98716.77;107054;1278;22542;-68
2023/02/19 06:02:19;;;;;;;11.20;5.30;;;;;;;0.95;100.00;98722.85;107156;1276;23161;-68
2023/02/19 06:04:47;;;;;;;15.40;5.80;;;;;;;0.96;100.00;98724.41;107384;1278;22838;-68
2023/02/19 06:07:16;;;;;;;12.10;5.30;;;;;;;1.04;100.00;98721.73;110233;1278;23210;-69
2023/02/19 06:09:45;;;;;;;11.20;4.50;;;;;;;1.15;100.00;98718.51;110227;1278;22696;-69
2023/02/19 06:12:18;;;;;;;12.60;4.10;;;;;;;1.27;100.00;98714.25;110162;1279;22292;-69
2023/02/19 06:14:47;;;;;;;11.30;4.80;;;;;;;1.37;100.00;98712.70;110174;1278;23203;-70
2023/02/19 06:17:15;;;;;;;8.60;4.00;;;;;;;1.54;100.00;98708.23;110010;1279;22240;-70
2023/02/19 06:19:45;;;;;;;11.30;4.00;;;;;;;1.73;100.00;98711.50;110024;1280;22205;-69
2023/02/19 06:22:14;;;;;;;9.40;3.90;;;;;;;1.88;100.00;98717.33;110065;1272;22434;-70
2023/02/19 06:24:46;;;;;;;9.00;4.20;;;;;;;2.01;100.00;98711.86;110143;1272;22276;-70
2023/02/19 06:27:14;;;;;;;11.60;4.10;;;;;;;2.14;100.00;98715.65;110233;1278;22195;-70
2023/02/19 06:29:44;;;;;;;9.80;3.90;;;;;;;2.32;100.00;98709.73;109997;1279;22558;-69
2023/02/19 06:32:12;;;;;;;9.80;3.90;;;;;;;2.48;100.00;98708.00;110146;1278;22353;-70
2023/02/19 06:34:40;;;;;;;9.10;3.60;;;;;;;2.59;100.00;98711.56;108688;1273;22831;-69
2023/02/19 06:37:09;;;;;;;10.50;3.80;;;;;;;2.67;100.00;98716.27;107342;1276;22526;-69
2023/02/19 06:39:37;;;;;;;10.10;3.90;;;;;;;2.82;100.00;98719.14;107305;1279;24399;-69
2023/02/19 06:42:05;;;;;;;7.30;3.70;;;;;;;3.02;100.00;98724.46;107410;1279;25484;-69
2023/02/19 06:44:34;;;;;;;10.20;3.90;;;;;;;3.14;100.00;98729.05;107337;1276;23899;-69
2023/02/19 06:47:02;;;;;;;9.20;3.70;;;;;;;3.18;100.00;98728.40;107351;1279;23362;-69
2023/02/19 06:49:31;;;;;;;10.00;4.30;;;;;;;3.24;100.00;98728.60;107350;1273;25401;-69
2023/02/19 06:52:04;;;;;;;11.40;3.70;;;;;;;3.35;100.00;98724.11;107350;1279;25252;-69
2023/02/19 06:54:32;;;;;;;9.10;3.80;;;;;;;3.34;100.00;98722.00;107547;1273;22670;-69
2023/02/19 06:57:01;;;;;;;9.00;3.40;;;;;;;3.33;100.00;98722.03;107200;1273;22651;-69
2023/02/19 06:59:29;;;;;;;8.20;4.00;;;;;;;3.38;100.00;98720.27;107004;1279;26515;-69
2023/02/19 07:01:57;;;;;;;11.70;3.70;;;;;;;3.46;100.00;98715.16;107232;1272;22651;-69
2023/02/19 07:04:25;;;;;;;9.10;3.90;;;;;;;3.53;100.00;98720.40;107264;1278;22525;-68
2023/02/19 07:06:54;;;;;;;9.00;4.10;;;;;;;3.52;100.00;98718.09;107307;1273;25344;-69
2023/02/19 07:09:24;;;;;;;8.10;3.40;;;;;;;3.55;100.00;98719.73;107353;1279;25401;-69
2023/02/19 07:11:53;;;;;;;8.40;3.80;;;;;;;3.58;100.00;98712.29;107436;1274;25199;-69
2023/02/19 07:14:22;;;;;;;8.90;3.50;;;;;;;3.62;100.00;98720.90;107438;1276;22548;-70
2023/02/19 07:16:51;;;;;;;8.40;3.30;;;;;;;3.75;100.00;98719.53;107560;1279;25373;-69
2023/02/19 07:19:20;;;;;;;12.30;4.30;;;;;;;3.80;100.00;98713.25;107355;1279;23261;-68
2023/02/19 07:21:50;;;;;;;10.60;3.60;;;;;;;3.79;100.00;98713.44;107380;1274;25267;-69
2023/02/19 07:24:20;;;;;;;10.30;4.40;;;;;;;3.85;100.00;98714.15;107382;1273;22562;-69
2023/02/19 07:26:48;;;;;;;10.10;3.70;;;;;;;3.92;100.00;98713.21;107324;1273;25507;-69
2023/02/19 07:29:16;;;;;;;7.20;3.00;;;;;;;3.99;100.00;98715.38;107234;1277;23109;-69
2023/02/19 07:31:44;;;;;;;8.30;3.60;;;;;;;4.09;100.00;98719.46;107213;1278;23379;-69
2023/02/19 07:34:13;;;;;;;8.90;3.10;;;;;;;4.14;100.00;98722.05;107307;1273;26512;-70
2023/02/19 07:36:41;;;;;;;6.60;3.10;;;;;;;4.03;100.00;98721.61;107546;1279;23133;-69
2023/02/19 07:39:11;;;;;;;9.90;3.80;;;;;;;3.88;100.00;98722.00;107350;1278;22513;-69
2023/02/19 07:41:41;;;;;;;10.10;4.00;;;;;;;3.77;100.00;98730.27;110230;1276;22979;-69
2023/02/19 07:44:12;;;;;;;9.00;3.40;;;;;;;3.76;100.00;98726.80;110219;1271;22681;-67
2023/02/19 07:46:42;;;;;;;9.60;3.90;;;;;;;3.72;100.00;98729.02;110229;1272;22415;-67
2023/02/19 07:49:10;;;;;;;9.20;3.60;;;;;;;3.68;100.00;98723.82;110264;1277;22267;-68
2023/02/19 07:51:40;;;;;;;9.20;3.80;;;;;;;3.67;100.00;98727.94;110203;1272;23159;-67
2023/02/19 07:54:08;;;;;;;8.50;3.30;;;;;;;3.70;100.00;98725.73;110263;1277;22351;-67
2023/02/19 07:56:36;;;;;;;11.40;3.50;;;;;;;3.68;100.00;98724.13;110189;1270;22919;-67
2023/02/19 07:59:04;;;;;;;9.60;3.30;;;;;;;3.61;100.00;98727.81;110288;1278;22324;-67
2023/02/19 08:04:19;;;;;;;7.90;3.40;;;;;;;3.58;100.00;98729.13;110270;1275;23709;-68
2023/02/19 08:06:48;;;;;;;6.40;2.50;;;;;;;3.49;100.00;98731.55;110207;1276;22401;-68
2023/02/19 08:09:17;;;;;;;7.30;2.50;;;;;;;3.44;100.00;98733.42;110241;1278;22406;-67
2023/02/19 08:14:39;;;;;;;9.50;2.70;;;;;;;3.27;100.00;98743.47;110264;1272;22233;-67
2023/02/19 08:17:10;;;;;;;8.40;2.50;;;;;;;3.22;100.00;98742.13;110040;1278;22137;-67
2023/02/19 08:19:39;;;;;;;10.10;3.80;;;;;;;3.26;100.00;98754.01;109925;1279;22225;-67
2023/02/19 08:22:08;;;;;;;9.00;3.40;;;;;;;3.30;100.00;98758.73;110239;1272;22343;-68
2023/02/19 08:24:40;;;;;;;8.00;2.60;;;;;;;3.34;100.00;98756.66;110180;1271;23292;-68
2023/02/19 08:27:09;;;;;;;9.00;3.20;;;;;;;3.38;100.00;98756.23;110201;1270;23054;-69
2023/02/19 08:29:38;;;;;;;9.20;3.00;;;;;;;3.42;100.00;98756.11;110136;1271;23160;-69
2023/02/19 08:32:06;;;;;;;8.30;2.90;;;;;;;3.48;100.00;98755.42;110140;1272;22404;-69
2023/02/19 08:34:34;;;;;;;11.80;3.60;;;;;;;3.48;100.00;98746.55;110137;1273;22313;-69
2023/02/19 08:37:03;;;;;;;9.90;3.50;;;;;;;3.53;100.00;98748.77;110199;1271;22290;-69
2023/02/19 08:39:31;;;;;;;9.80;3.20;;;;;;;3.61;100.00;98739.72;107802;1271;25341;-68
2023/02/19 08:42:01;;;;;;;9.60;3.60;;;;;;;3.71;100.00;98740.16;107352;1271;23479;-68
2023/02/19 08:44:29;;;;;;;8.80;3.20;;;;;;;3.74;100.00;98736.98;107395;1272;25381;-68
2023/02/19 08:47:01;;;;;;;11.60;3.30;;;;;;;3.73;100.00;98736.73;107331;1270;25372;-68
2023/02/19 08:49:29;;;;;;;9.00;2.70;;;;;;;3.75;100.00;98732.29;107438;1277;22655;-68
2023/02/19 08:51:58;;;;;;;8.60;2.90;;;;;;;3.85;100.00;98735.32;107365;1270;27236;-69
2023/02/19 08:54:28;;;;;;;9.10;3.10;;;;;;;3.88;100.00;98726.37;107939;1271;22672;-68
2023/02/19 08:56:57;;;;;;;8.90;3.00;;;;;;;3.97;100.00;98728.41;107410;1271;23237;-69
2023/02/19 08:59:28;;;;;;;8.30;2.70;;;;;;;4.13;100.00;98726.08;107722;1273;22579;-68
2023/02/19 09:01:59;;;;;;;8.30;2.90;;;;;;;4.22;100.00;98721.25;107493;1275;22543;-69
2023/02/19 09:04:29;;;;;;;7.40;3.20;;;;;;;4.17;100.00;98717.98;107564;1271;23645;-68
2023/02/19 09:06:57;;;;;;;9.00;2.30;;;;;;;4.03;100.00;98708.70;107482;1270;24225;-68
2023/02/19 09:09:26;;;;;;;11.50;3.00;;;;;;;3.92;100.00;98712.51;107471;1270;22538;-68
2023/02/19 09:11:55;;;;;;;10.90;3.30;;;;;;;3.83;100.00;98716.72;107369;1272;22667;-68
2023/02/19 09:14:24;;;;;;;8.90;3.10;;;;;;;3.82;100.00;98713.26;110217;1277;22903;-69
2023/02/19 09:16:52;;;;;;;10.40;2.80;;;;;;;3.75;100.00;98715.50;110262;1275;22835;-68
2023/02/19 09:19:20;;;;;;;12.70;3.00;;;;;;;3.67;100.00;98714.92;110235;1278;22442;-69
2023/02/19 09:21:49;;;;;;;11.30;3.30;;;;;;;3.62;100.00;98713.14;110170;1270;22375;-69
2023/02/19 09:24:17;;;;;;;10.30;3.00;;;;;;;3.61;100.00;98720.61;110184;1278;22400;-69
2023/02/19 09:26:52;;;;;;;13.40;3.30;;;;;;;3.59;100.00;98722.90;110159;1278;22420;-68
2023/02/19 09:29:21;;;;;;;10.70;3.70;;;;;;;3.55;100.00;98718.43;110092;1271;22534;-69
2023/02/19 09:31:49;;;;;;;8.10;3.00;;;;;;;3.47;100.00;98719.20;110079;1277;22277;-69
2023/02/19 09:34:17;;;;;;;7.60;2.90;;;;;;;3.38;100.00;98732.11;107596;1278;25248;-68
2023/02/19 09:36:48;;;;;;;11.10;2.70;;;;;;;3.36;100.00;98734.02;107712;1278;22791;-68
2023/02/19 09:39:17;;;;;;;10.80;3.40;;;;;;;3.29;100.00;98731.58;107559;1270;22546;-68
2023/02/19 09:41:53;;;;;;;10.70;3.10;;;;;;;3.22;100.00;98729.48;107373;1276;22937;-69
2023/02/19 09:44:26;;;;;;;10.40;3.70;;;;;;;3.20;100.00;98725.73;107535;1273;23306;-68
2023/02/19 09:46:54;;;;;;;10.10;3.60;;;;;;;3.29;100.00;98715.75;107601;1273;24345;-70
2023/02/19 09:49:30;;;;;;;8.60;2.80;;;;;;;3.43;100.00;98708.49;107297;1270;23210;-68
2023/02/19 09:52:10;;;;;;;13.40;3.80;;;;;;;3.55;100.00;98700.04;107474;1272;25514;-68
2023/02/19 09:54:40;;;;;;;11.30;3.40;;;;;;;3.71;100.00;98699.46;107518;1278;22555;-68
2023/02/19 09:57:13;;;;;;;10.00;2.90;;;;;;;3.81;100.00;98687.67;107306;1272;24111;-69
2023/02/19 09:59:44;;;;;;;8.50;3.30;;;;;;;3.98;100.00;98679.23;107339;1270;22530;-67
2023/02/19 10:02:16;;;;;;;10.30;3.30;;;;;;;4.17;100.00;98678.43;107680;1270;25425;-68
2023/02/19 10:04:46;;;;;;;11.90;3.80;;;;;;;4.23;100.00;98674.02;107486;1270;24370;-68
2023/02/19 10:07:16;;;;;;;9.30;3.30;;;;;;;4.24;100.00;98671.67;107462;1270;26503;-68
2023/02/19 10:10:09;;;;;;;12.50;3.80;;;;;;;4.22;100.00;98658.13;107546;1272;22515;-68
2023/02/19 10:12:38;;;;;;;11.60;3.50;;;;;;;4.24;100.00;98651.35;107368;1270;22562;-69
2023/02/19 10:15:11;;;;;;;12.00;3.80;;;;;;;4.28;100.00;98646.80;109911;1278;22331;-68
2023/02/19 10:17:39;;;;;;;8.00;2.90;;;;;;;4.39;100.00;98648.56;110040;1271;22443;-69
2023/02/19 10:20:13;;;;;;;9.40;2.70;;;;;;;4.38;100.00;98642.77;110179;1272;22989;-68
2023/02/19 10:22:43;;;;;;;9.60;3.40;;;;;;;4.41;100.00;98645.34;110068;1272;22733;-68
2023/02/19 10:25:14;;;;;;;8.30;2.50;;;;;;;4.43;100.00;98649.02;110235;1275;22394;-69
2023/02/19 10:27:42;;;;;;;9.00;3.00;;;;;;;4.44;100.00;98640.78;110059;1278;22334;-69
2023/02/19 10:30:19;;;;;;;11.50;3.00;;;;;;;4.41;100.00;98634.61;110070;1278;22553;-69
2023/02/19 10:33:02;;;;;;;11.80;3.40;;;;;;;4.39;100.00;98629.38;109989;1273;22844;-68
2023/02/19 10:35:35;;;;;;;7.80;3.00;;;;;;;4.37;100.00;98620.36;110095;1271;22368;-68
2023/02/19 10:38:05;;;;;;;8.40;3.10;;;;;;;4.36;100.00;98609.95;110103;1278;23327;-69
2023/02/19 10:40:34;;;;;;;8.70;2.70;;;;;;;4.38;100.00;98609.80;110204;1271;22221;-68
2023/02/19 10:43:03;;;;;;;7.50;2.60;;;;;;;4.42;100.00;98604.45;109288;1278;25401;-68
2023/02/19 10:45:39;;;;;;;7.80;2.70;;;;;;;4.44;100.00;98591.20;107435;1278;23781;-68
2023/02/19 10:48:18;;;;;;;7.80;2.80;;;;;;;4.49;100.00;98581.38;107437;1278;25510;-67
2023/02/19 10:50:49;;;;;;;8.60;2.80;;;;;;;4.56;100.00;98577.20;107216;1276;24295;-68
2023/02/19 10:53:24;;;;;;;8.80;2.80;;;;;;;4.59;100.00;98579.33;109923;1273;22474;-69
2023/02/19 10:56:13;;;;;;;8.60;2.60;;;;;;;4.59;100.00;98572.97;110119;1273;22344;-68
2023/02/19 10:58:43;;;;;;;10.70;3.50;;;;;;;4.61;100.00;98567.30;109973;1278;22294;-68
2023/02/19 11:01:12;;;;;;;10.50;4.10;;;;;;;4.58;100.00;98560.13;109986;1276;23193;-69
2023/02/19 11:03:41;;;;;;;9.70;3.40;;;;;;;4.54;100.00;98557.46;110204;1273;22233;-70
2023/02/19 11:06:10;;;;;;;9.50;3.00;;;;;;;4.51;100.00;98557.35;110122;1273;22200;-69
2023/02/19 11:08:53;;;;;;;8.40;3.10;;;;;;;4.46;100.00;98554.08;109970;1270;22303;-67
2023/02/19 11:11:27;;;;;;;9.50;3.40;;;;;;;4.40;100.00;98549.46;110203;1273;22212;-70
2023/02/19 11:13:57;;;;;;;10.80;3.00;;;;;;;4.37;100.00;98539.59;110151;1278;22349;-68
2023/02/19 11:16:40;;;;;;;9.00;2.50;;;;;;;4.48;100.00;98528.70;110190;1278;22433;-68
2023/02/19 11:19:24;;;;;;;8.20;2.30;;;;;;;4.53;100.00;98529.70;109958;1278;22946;-68
2023/02/19 11:21:52;;;;;;;7.50;2.70;;;;;;;4.51;100.00;98524.94;109996;1273;22204;-68
2023/02/19 11:24:34;;;;;;;12.00;2.20;;;;;;;4.52;100.00;98519.77;109862;1278;23755;-67
2023/02/19 11:27:03;;;;;;;8.10;1.80;;;;;;;4.54;100.00;98516.92;110186;1278;22290;-68
2023/02/19 11:29:33;;;;;;;6.10;2.10;;;;;;;4.49;100.00;98510.75;109845;1278;23388;-67
2023/02/19 11:32:22;;;;;;;8.40;2.30;;;;;;;4.49;100.00;98511.48;110053;1278;22314;-67
2023/02/19 11:34:50;;;;;;;7.40;2.40;;;;;;;4.50;100.00;98505.86;110153;1276;22317;-68
2023/02/19 11:37:19;;;;;;;7.80;2.00;;;;;;;4.53;100.00;98504.91;110223;1278;23029;-68
2023/02/19 11:39:49;;;;;;;7.90;1.90;;;;;;;4.53;100.00;98507.98;110185;1278;23020;-68
2023/02/19 11:42:17;;;;;;;8.40;2.30;;;;;;;4.49;100.00;98513.04;110142;1271;22445;-67
2023/02/19 11:45:11;;;;;;;6.30;1.90;;;;;;;4.47;100.00;98519.80;110139;1274;22222;-68
2023/02/19 11:48:00;;;;;;;6.20;1.80;;;;;;;4.43;100.00;98522.38;110039;1278;22208;-67
2023/02/19 11:50:41;;;;;;;6.40;2.00;;;;;;;4.41;100.00;98521.55;110146;1278;22265;-67
2023/02/19 11:53:26;;;;;;;6.80;1.90;;;;;;;4.43;100.00;98518.48;109850;1275;23632;-67
2023/02/19 11:55:54;;;;;;;8.00;2.00;;;;;;;4.41;100.00;98519.30;110186;1272;22221;-68
2023/02/19 11:58:44;;;;;;;5.20;1.60;;;;;;;4.37;100.00;98514.41;110232;1278;22340;-67
2023/02/19 12:01:23;;;;;;;8.10;2.40;;;;;;;4.37;100.00;98513.92;110247;1273;23317;-67
2023/02/19 12:04:09;;;;;;;8.20;2.00;;;;;;;4.39;100.00;98514.98;110096;1278;22208;-67
2023/02/19 12:07:09;;;;;;;9.60;2.20;;;;;;;4.43;100.00;98519.77;110284;1278;21910;-67
2023/02/19 12:10:04;;;;;;;8.10;2.40;;;;;;;4.43;100.00;98517.56;108483;1271;24195;-66
2023/02/19 12:12:55;;;;;;;8.30;2.20;;;;;;;4.39;100.00;98509.30;107423;1273;25510;-68